createdAt,value
2023-01-08T00:02:19.291Z,101244.17
2023-01-08T00:04:46.124Z,101252.96
2023-01-08T00:07:12.933Z,101255.70
2023-01-08T00:09:40.577Z,101257.00
2023-01-08T00:12:07.565Z,101253.20
2023-01-08T00:14:34.468Z,101256.38
2023-01-08T00:17:02.979Z,101250.04
2023-01-08T00:19:31.432Z,101250.76
2023-01-08T00:21:58.325Z,101248.71
2023-01-08T00:24:25.441Z,101249.16
2023-01-08T00:26:52.447Z,101248.93
2023-01-08T00:29:19.431Z,101247.19
2023-01-08T00:31:46.376Z,101240.46
2023-01-08T00:34:13.322Z,101239.64
2023-01-08T00:36:40.277Z,101240.86
2023-01-08T00:39:07.312Z,101239.11
2023-01-08T00:41:34.266Z,101238.52
2023-01-08T00:44:01.176Z,101240.94
2023-01-08T00:46:28.368Z,101238.93
2023-01-08T00:48:55.309Z,101239.77
2023-01-08T00:51:22.472Z,101237.17
2023-01-08T00:53:49.551Z,101236.08
2023-01-08T00:56:16.455Z,101232.72
2023-01-08T00:58:43.432Z,101231.52
2023-01-08T01:01:12.127Z,101228.59
2023-01-08T01:03:39.333Z,101234.81
2023-01-08T01:06:06.806Z,101227.40
2023-01-08T01:08:34.682Z,101227.88
2023-01-08T01:11:01.592Z,101229.75
2023-01-08T01:13:28.767Z,101231.77
2023-01-08T01:15:59.622Z,101231.39
2023-01-08T01:18:26.578Z,101224.74
2023-01-08T01:20:53.521Z,101223.45
2023-01-08T01:23:20.428Z,101225.34
2023-01-08T01:25:47.446Z,101225.52
2023-01-08T01:28:14.350Z,101220.19
2023-01-08T01:30:41.333Z,101220.98
2023-01-08T01:33:08.197Z,101224.73
2023-01-08T01:35:35.138Z,101225.45
2023-01-08T01:38:01.969Z,101227.16
2023-01-08T01:40:28.815Z,101225.15
2023-01-08T01:42:55.769Z,101229.53
2023-01-08T01:45:24.303Z,101225.10
2023-01-08T01:48:16.345Z,101229.02
2023-01-08T01:50:46.195Z,101227.54
2023-01-08T01:53:17.475Z,101232.78
2023-01-08T01:55:44.446Z,101229.29
2023-01-08T01:58:15.435Z,101229.73
2023-01-08T02:00:42.832Z,101226.30
2023-01-08T02:03:13.566Z,101236.86
2023-01-08T02:06:01.016Z,101233.42
2023-01-08T02:08:31.125Z,101230.20
2023-01-08T02:11:02.841Z,101223.05
2023-01-08T02:13:31.520Z,101217.95
2023-01-08T02:16:01.243Z,101214.90
2023-01-08T02:18:32.907Z,101218.14
2023-01-08T02:21:24.242Z,101222.04
2023-01-08T02:24:01.951Z,101228.83
2023-01-08T02:26:30.655Z,101231.42
2023-01-08T02:29:10.760Z,101230.23
2023-01-08T02:31:39.148Z,101225.46
2023-01-08T02:34:06.029Z,101228.80
2023-01-08T02:36:35.170Z,101230.32
2023-01-08T02:39:04.894Z,101226.64
2023-01-08T02:41:54.850Z,101223.88
2023-01-08T02:44:33.737Z,101220.38
2023-01-08T02:47:00.789Z,101218.77
2023-01-08T02:49:30.484Z,101217.92
2023-01-08T02:51:57.397Z,101218.08
2023-01-08T02:54:27.142Z,101217.67
2023-01-08T02:56:58.364Z,101222.51
2023-01-08T02:59:25.179Z,101223.73
2023-01-08T03:01:52.500Z,101232.42
2023-01-08T03:04:20.473Z,101230.52
2023-01-08T03:06:47.436Z,101236.51
2023-01-08T03:09:14.657Z,101234.55
2023-01-08T03:11:46.592Z,101228.34
2023-01-08T03:14:19.132Z,101234.88
2023-01-08T03:16:48.382Z,101232.83
2023-01-08T03:19:19.688Z,101231.55
2023-01-08T03:21:46.503Z,101238.80
2023-01-08T03:24:15.349Z,101234.33
2023-01-08T03:26:42.357Z,101232.35
2023-01-08T03:29:11.034Z,101229.83
2023-01-08T03:31:37.999Z,101225.33
2023-01-08T03:34:04.840Z,101223.34
2023-01-08T03:36:31.661Z,101222.52
2023-01-08T03:39:05.566Z,101223.77
2023-01-08T03:41:32.519Z,101220.39
2023-01-08T03:43:59.382Z,101225.48
2023-01-08T03:46:33.060Z,101222.80
2023-01-08T03:49:00.023Z,101218.82
2023-01-08T03:51:26.942Z,101227.27
2023-01-08T03:53:56.710Z,101225.40
2023-01-08T03:56:23.530Z,101232.37
2023-01-08T03:58:50.395Z,101234.51
2023-01-08T04:01:17.326Z,101232.30
2023-01-08T04:03:44.295Z,101229.41
2023-01-08T04:06:11.098Z,101234.69
2023-01-08T04:08:37.925Z,101233.52
2023-01-08T04:11:04.855Z,101235.51
2023-01-08T04:13:31.746Z,101229.58
2023-01-08T04:15:58.858Z,101224.87
2023-01-08T04:18:25.759Z,101228.27
2023-01-08T04:20:52.690Z,101229.73
2023-01-08T04:23:19.635Z,101233.00
2023-01-08T04:25:46.447Z,101236.73
2023-01-08T04:28:13.275Z,101238.27
2023-01-08T04:30:40.142Z,101235.40
2023-01-08T04:33:07.056Z,101237.87
2023-01-08T04:35:34.012Z,101233.35
2023-01-08T04:38:00.948Z,101231.48
2023-01-08T04:40:27.888Z,101232.08
2023-01-08T04:42:54.666Z,101236.45
2023-01-08T04:45:21.721Z,101234.86
2023-01-08T04:47:48.777Z,101240.15
2023-01-08T04:50:15.824Z,101236.53
2023-01-08T04:52:42.664Z,101235.70
2023-01-08T04:55:09.638Z,101232.48
2023-01-08T04:57:36.399Z,101234.98
2023-01-08T05:00:03.627Z,101238.23
2023-01-08T05:02:30.574Z,101244.05
2023-01-08T05:04:57.523Z,101247.60
2023-01-08T05:07:24.407Z,101253.83
2023-01-08T05:09:51.329Z,101248.48
2023-01-08T05:12:18.375Z,101250.98
2023-01-08T05:14:45.197Z,101250.83
2023-01-08T05:17:12.117Z,101253.93
2023-01-08T05:19:38.984Z,101254.96
2023-01-08T05:22:05.935Z,101248.02
2023-01-08T05:24:33.531Z,101250.13
2023-01-08T05:27:00.540Z,101253.29
2023-01-08T05:29:27.490Z,101251.32
2023-01-08T05:31:54.453Z,101249.39
2023-01-08T05:34:21.414Z,101251.53
2023-01-08T05:36:48.685Z,101246.24
2023-01-08T05:39:15.708Z,101253.73
2023-01-08T05:41:42.576Z,101259.33
2023-01-08T05:44:10.328Z,101260.30
2023-01-08T05:46:37.267Z,101257.81
2023-01-08T05:49:04.325Z,101265.26
2023-01-08T05:51:31.228Z,101265.91
2023-01-08T05:53:58.214Z,101257.70
2023-01-08T05:56:25.131Z,101264.02
2023-01-08T05:58:54.714Z,101269.73
2023-01-08T06:01:21.834Z,101274.93
2023-01-08T06:03:48.820Z,101267.63
2023-01-08T06:06:16.882Z,101269.94
2023-01-08T06:08:43.918Z,101264.13
2023-01-08T06:11:11.558Z,101261.75
2023-01-08T06:13:41.685Z,101259.22
2023-01-08T06:16:08.735Z,101253.06
2023-01-08T06:18:35.870Z,101259.73
2023-01-08T06:21:02.938Z,101256.34
2023-01-08T06:23:30.040Z,101255.33
2023-01-08T06:25:57.959Z,101258.75
2023-01-08T06:28:25.477Z,101254.95
2023-01-08T06:30:52.696Z,101259.06
2023-01-08T06:33:21.582Z,101251.05
2023-01-08T06:35:49.494Z,101256.70
2023-01-08T06:38:19.217Z,101253.14
2023-01-08T06:40:47.200Z,101256.08
2023-01-08T06:43:14.275Z,101248.25
2023-01-08T06:45:41.316Z,101248.08
2023-01-08T06:48:08.765Z,101255.58
2023-01-08T06:50:36.185Z,101257.39
2023-01-08T06:53:03.239Z,101253.94
2023-01-08T06:55:30.740Z,101253.96
2023-01-08T06:57:58.352Z,101257.27
2023-01-08T07:00:26.328Z,101253.72
2023-01-08T07:02:53.477Z,101255.52
2023-01-08T07:05:20.614Z,101250.64
2023-01-08T07:07:47.683Z,101256.20
2023-01-08T07:10:15.240Z,101260.05
2023-01-08T07:12:42.759Z,101252.16
2023-01-08T07:15:10.422Z,101246.99
2023-01-08T07:17:37.498Z,101250.13
2023-01-08T07:20:05.633Z,101245.83
2023-01-08T07:22:32.679Z,101249.90
2023-01-08T07:25:00.922Z,101254.78
2023-01-08T07:27:30.519Z,101253.08
2023-01-08T07:30:00.947Z,101258.70
2023-01-08T07:32:31.630Z,101257.53
2023-01-08T07:35:01.677Z,101262.02
2023-01-08T07:37:30.921Z,101257.98
2023-01-08T07:40:00.470Z,101262.27
2023-01-08T07:42:30.945Z,101257.53
2023-01-08T07:45:01.616Z,101257.77
2023-01-08T07:47:31.791Z,101258.67
2023-01-08T07:50:01.683Z,101260.43
2023-01-08T12:23:15.626Z,101177.73
2023-01-08T12:26:06.331Z,101151.84
2023-01-08T12:28:59.486Z,101156.11
2023-01-08T12:32:01.887Z,101154.23
2023-01-08T12:34:41.717Z,101153.94
2023-01-08T12:37:19.353Z,101145.88
2023-01-08T12:40:06.746Z,101139.70
2023-01-08T12:42:38.455Z,101145.66
2023-01-08T12:45:06.874Z,101143.84
2023-01-08T12:47:35.173Z,101141.86
2023-01-08T12:50:16.239Z,101134.88
2023-01-08T12:52:48.502Z,101133.84
2023-01-08T12:55:30.192Z,101138.52
2023-01-08T12:58:18.133Z,101129.23
2023-01-08T13:01:26.906Z,101126.59
2023-01-08T13:03:53.815Z,101126.94
2023-01-08T13:06:20.828Z,101128.73
2023-01-08T13:08:54.683Z,101127.48
2023-01-08T13:11:29.603Z,101132.98
2023-01-08T13:14:07.938Z,101135.41
2023-01-08T13:16:39.763Z,101141.41
2023-01-08T13:19:07.848Z,101137.20
2023-01-08T13:21:50.047Z,101138.06
2023-01-08T13:24:34.926Z,101134.21
2023-01-08T13:27:14.182Z,101130.75
2023-01-08T13:29:42.467Z,101134.61
2023-01-08T13:32:37.534Z,101132.06
2023-01-08T13:35:13.930Z,101123.55
2023-01-08T13:37:49.316Z,101120.02
2023-01-08T13:40:39.082Z,101122.17
2023-01-08T13:43:30.243Z,101109.48
2023-01-08T13:45:59.781Z,101107.61
2023-01-08T13:48:28.539Z,101103.08
2023-01-08T13:50:55.997Z,101100.71
2023-01-08T13:53:23.969Z,101102.95
2023-01-08T13:56:05.283Z,101096.47
2023-01-08T13:58:44.845Z,101097.77
2023-01-08T14:01:13.001Z,101087.06
2023-01-08T14:03:45.156Z,101094.89
2023-01-08T14:06:19.560Z,101091.29
2023-01-08T14:08:57.974Z,101093.77
2023-01-08T14:11:29.670Z,101090.11
2023-01-08T14:13:56.786Z,101094.31
2023-01-08T14:16:23.636Z,101094.61
2023-01-08T14:18:50.467Z,101094.84
2023-01-08T14:21:21.714Z,101092.36
2023-01-08T14:23:49.294Z,101087.53
2023-01-08T14:26:28.997Z,101093.55
2023-01-08T14:28:56.072Z,101091.15
2023-01-08T14:31:26.788Z,101082.77
2023-01-08T14:33:54.983Z,101083.70
2023-01-08T14:36:21.954Z,101082.21
2023-01-08T14:38:51.949Z,101080.02
2023-01-08T14:41:52.513Z,101079.83
2023-01-08T14:44:29.231Z,101088.88
2023-01-08T14:47:03.525Z,101092.90
2023-01-08T14:49:32.275Z,101091.20
2023-01-08T14:52:00.042Z,101087.38
2023-01-08T14:54:30.287Z,101084.70
2023-01-08T14:57:00.483Z,101088.22
2023-01-08T14:59:30.498Z,101088.16
2023-01-08T15:01:59.555Z,101077.76
2023-01-08T15:04:27.295Z,101075.00
2023-01-08T15:07:05.475Z,101077.22
2023-01-08T15:09:33.148Z,101074.23
2023-01-08T15:12:01.625Z,101068.52
2023-01-08T15:14:30.398Z,101078.61
2023-01-08T15:16:59.150Z,101077.28
2023-01-08T15:19:28.314Z,101076.88
2023-01-08T15:21:59.366Z,101068.02
2023-01-08T15:24:34.060Z,101069.06
2023-01-08T15:27:09.323Z,101071.89
2023-01-08T15:29:39.547Z,101076.39
2023-01-08T15:32:11.835Z,101078.44
2023-01-08T15:34:39.975Z,101078.88
2023-01-08T15:37:06.932Z,101080.17
2023-01-08T15:39:33.765Z,101088.47
2023-01-08T15:42:21.392Z,101089.86
2023-01-08T15:44:48.439Z,101087.38
2023-01-08T15:47:15.298Z,101081.43
2023-01-08T15:49:42.953Z,101080.23
2023-01-08T15:52:09.693Z,101078.22
2023-01-08T15:54:36.845Z,101073.41
2023-01-08T19:52:53.027Z,101062.23
2023-01-08T19:55:21.719Z,101046.89
2023-01-08T19:57:49.904Z,101042.83
2023-01-08T20:00:17.684Z,101051.14
2023-01-08T20:02:44.856Z,101046.31
2023-01-08T20:05:12.394Z,101035.20
2023-01-08T20:07:40.171Z,101033.66
2023-01-08T20:10:10.524Z,101032.39
2023-01-08T20:12:39.676Z,101024.32
2023-01-08T20:15:08.752Z,101024.99
2023-01-08T20:17:37.654Z,101027.52
2023-01-08T20:20:06.125Z,101019.02
2023-01-08T20:22:33.280Z,101021.05
2023-01-08T20:25:04.116Z,101020.14
2023-01-08T20:27:31.786Z,101012.93
2023-01-08T20:29:58.847Z,101013.67
2023-01-08T20:32:25.877Z,101017.64
2023-01-08T20:35:29.235Z,101010.94
2023-01-08T20:37:56.151Z,101007.03
2023-01-08T20:40:24.406Z,101004.48
2023-01-08T20:42:51.462Z,101005.06
2023-01-08T20:45:18.496Z,101006.81
2023-01-08T20:47:45.451Z,101008.89
2023-01-08T20:50:19.733Z,101003.35
2023-01-08T20:52:47.634Z,100997.69
2023-01-08T20:55:16.435Z,100990.23
2023-01-08T20:57:43.988Z,100991.09
2023-01-08T21:00:12.157Z,100994.95
2023-01-08T21:02:39.344Z,100987.92
2023-01-08T21:05:07.903Z,100982.73
2023-01-08T21:07:35.094Z,100989.59
2023-01-08T21:10:02.127Z,100992.70
2023-01-08T21:12:30.987Z,100989.91
2023-01-08T21:14:58.039Z,100986.55
2023-01-08T21:17:25.034Z,100983.52
2023-01-08T21:19:51.956Z,100984.77
2023-01-08T21:22:19.080Z,100977.71
2023-01-08T21:24:47.255Z,100972.45
2023-01-08T21:27:14.053Z,100964.23
2023-01-08T21:29:41.164Z,100966.81
2023-01-08T21:32:11.169Z,100968.14
2023-01-08T21:34:38.332Z,100964.67
2023-01-08T21:37:08.151Z,100963.85
2023-01-08T21:39:35.184Z,100960.75
2023-01-08T21:42:20.660Z,100962.56
2023-01-08T21:45:06.470Z,100966.45
2023-01-08T21:47:33.977Z,100969.89
2023-01-08T21:50:00.713Z,100963.98
2023-01-08T21:52:46.111Z,100957.23
2023-01-08T21:55:16.455Z,100969.83
2023-01-08T21:57:43.815Z,100954.27
2023-01-08T22:00:11.782Z,100949.31
2023-01-08T22:02:38.589Z,100950.11
2023-01-08T22:05:05.798Z,100942.25
2023-01-08T22:07:32.759Z,100938.02
2023-01-08T22:10:00.217Z,100930.24
2023-01-08T22:12:27.247Z,100928.78
2023-01-08T22:14:54.907Z,100917.48
2023-01-08T22:17:22.876Z,100916.13
2023-01-08T22:19:50.939Z,100917.10
2023-01-08T22:22:17.860Z,100917.04
2023-01-08T22:24:45.768Z,100917.63
2023-01-08T22:27:12.613Z,100910.98
2023-01-08T22:29:39.443Z,100910.39
2023-01-08T22:32:06.404Z,100910.31
2023-01-08T22:34:33.953Z,100905.98
2023-01-08T22:37:00.997Z,100911.86
2023-01-08T22:39:28.255Z,100904.56
2023-01-08T22:41:54.885Z,100907.98
2023-01-08T22:44:21.652Z,100908.19
2023-01-08T22:46:48.392Z,100909.63
2023-01-08T22:49:15.330Z,100914.50
2023-01-08T22:51:45.240Z,100911.55
2023-01-08T22:54:12.595Z,100915.75
2023-01-08T22:56:39.857Z,100910.61
2023-01-08T22:59:06.797Z,100904.16
2023-01-08T23:01:33.558Z,100902.05
2023-01-08T23:04:00.655Z,100895.41
2023-01-08T23:06:29.064Z,100894.50
2023-01-08T23:08:56.138Z,100887.24
2023-01-08T23:11:23.686Z,100890.74
2023-01-08T23:13:53.456Z,100884.17
2023-01-08T23:16:22.986Z,100884.75
2023-01-08T23:18:54.440Z,100882.67
2023-01-08T23:21:23.036Z,100879.03
2023-01-08T23:23:50.091Z,100868.32
2023-01-08T23:26:19.406Z,100860.55
2023-01-08T23:28:46.945Z,100858.87
2023-01-08T23:31:15.599Z,100853.79
2023-01-08T23:33:42.380Z,100852.42
2023-01-08T23:36:09.543Z,100852.50
2023-01-08T23:38:36.793Z,100851.10
2023-01-08T23:41:05.627Z,100852.15
2023-01-08T23:43:34.985Z,100839.29
2023-01-08T23:46:05.743Z,100839.67
2023-01-08T23:48:33.478Z,100835.94
2023-01-08T23:51:00.355Z,100836.61
2023-01-08T23:53:27.381Z,100837.79
2023-01-08T23:55:54.324Z,100831.56
2023-01-08T23:58:21.165Z,100826.67
